Time;durP1;ratioP1;P1;durP2;ratioP2;P2;SDS_P1;SDS_P2;PMS_P1;PMS_P2;Temp;Humidity;BMP_temperature;BMP_pressure;BME280_temperature;BME280_humidity;BME280_pressure;Samples;Min_cycle;Max_cycle;Signal;HPM_P1;HPM_P2
2021/04/08 00:01:16;;;;;;;40.92;19.35;;;-1.00;99.90;;;;;;5092924;28;20025;-84
2021/04/08 00:03:42;;;;;;;42.00;19.30;;;-1.10;99.90;;;;;;5074613;28;20036;-83
2021/04/08 00:06:08;;;;;;;51.28;20.52;;;-1.10;99.90;;;;;;5074674;28;20026;-83
2021/04/08 00:08:34;;;;;;;39.38;20.27;;;-1.10;99.90;;;;;;5074569;28;20024;-83
2021/04/08 00:11:00;;;;;;;47.05;20.40;;;-1.20;99.90;;;;;;5091634;28;20490;-83
2021/04/08 00:13:25;;;;;;;44.90;19.27;;;-1.20;99.90;;;;;;5074701;28;20028;-84
2021/04/08 00:15:51;;;;;;;38.75;21.23;;;-1.30;99.90;;;;;;5074534;28;20477;-84
2021/04/08 00:18:17;;;;;;;44.72;18.65;;;-1.30;99.90;;;;;;5092719;28;20028;-83
2021/04/08 00:20:43;;;;;;;45.05;19.15;;;-1.30;99.90;;;;;;5074423;28;20031;-84
2021/04/08 00:23:09;;;;;;;41.17;19.55;;;-1.40;99.90;;;;;;5092562;28;20111;-83
2021/04/08 00:25:36;;;;;;;43.58;19.25;;;-1.40;99.90;;;;;;5076835;28;20122;-84
2021/04/08 00:28:05;;;;;;;40.88;19.42;;;-1.40;99.90;;;;;;5096446;28;20466;-84
2021/04/08 00:30:42;;;;;;;44.42;20.02;;;-1.50;99.90;;;;;;5078233;28;20027;-84
2021/04/08 00:33:08;;;;;;;48.38;19.92;;;-1.50;99.90;;;;;;5078709;28;20040;-83
2021/04/08 00:35:34;;;;;;;40.80;19.00;;;-1.50;99.90;;;;;;5096374;28;20024;-84
2021/04/08 00:38:00;;;;;;;47.08;20.05;;;-1.60;99.90;;;;;;5078195;28;20427;-84
2021/04/08 00:40:25;;;;;;;43.00;19.52;;;-1.70;99.90;;;;;;5078142;28;20027;-86
2021/04/08 00:42:51;;;;;;;40.60;18.33;;;-1.70;99.90;;;;;;5078033;28;20131;-85
2021/04/08 00:45:17;;;;;;;39.83;18.23;;;-1.70;99.90;;;;;;5078195;28;20038;-84
2021/04/08 00:47:42;;;;;;;33.70;16.50;;;-1.70;99.90;;;;;;5077982;28;20039;-83
2021/04/08 00:50:08;;;;;;;41.38;17.65;;;-1.80;99.90;;;;;;5077867;28;20103;-84
2021/04/08 00:52:35;;;;;;;35.08;17.98;;;-1.80;99.90;;;;;;5096047;28;20488;-84
2021/04/08 00:55:01;;;;;;;42.92;18.15;;;-1.80;99.90;;;;;;5077843;28;20026;-84
2021/04/08 00:57:26;;;;;;;32.65;17.85;;;-1.80;99.90;;;;;;5096154;28;20042;-84
2021/04/08 00:59:53;;;;;;;39.95;16.65;;;-1.90;99.90;;;;;;5077718;28;20034;-84
2021/04/08 01:02:19;;;;;;;32.92;16.50;;;-1.90;99.90;;;;;;5077662;28;20028;-84
2021/04/08 01:04:45;;;;;;;30.73;15.77;;;-1.90;99.90;;;;;;5077919;28;20119;-83
2021/04/08 01:07:11;;;;;;;29.52;14.63;;;-1.90;99.90;;;;;;5077811;28;20120;-83
2021/04/08 01:09:36;;;;;;;32.88;15.43;;;-1.90;99.90;;;;;;5077412;28;20043;-84
2021/04/08 01:12:02;;;;;;;30.63;13.70;;;-1.90;99.90;;;;;;5095883;28;20065;-83
2021/04/08 01:14:28;;;;;;;26.05;13.32;;;-1.90;99.90;;;;;;5077569;28;20035;-84
2021/04/08 01:17:00;;;;;;;27.35;13.95;;;-1.90;99.90;;;;;;5076674;28;20017;-83
2021/04/08 01:19:44;;;;;;;31.38;15.75;;;-1.90;99.90;;;;;;5077459;28;20031;-83
2021/04/08 01:22:38;;;;;;;29.48;15.23;;;-1.90;99.90;;;;;;5077451;28;20391;-83
2021/04/08 01:25:16;;;;;;;29.02;14.63;;;-1.90;99.90;;;;;;5095573;28;20028;-83
2021/04/08 01:28:06;;;;;;;27.08;13.40;;;-1.90;99.90;;;;;;5095510;28;20071;-83
2021/04/08 01:30:44;;;;;;;29.38;12.55;;;-2.00;99.90;;;;;;5077187;28;20035;-83
2021/04/08 01:33:16;;;;;;;29.08;13.52;;;-1.90;99.90;;;;;;5077208;28;20115;-83
2021/04/08 01:35:44;;;;;;;33.03;15.65;;;-2.00;99.90;;;;;;5094811;28;20024;-84
2021/04/08 01:38:27;;;;;;;33.25;15.43;;;-2.00;99.90;;;;;;5077161;28;20027;-84
2021/04/08 01:40:54;;;;;;;25.35;12.30;;;-2.00;99.90;;;;;;5066871;28;20036;-84
2021/04/08 01:43:31;;;;;;;29.92;14.73;;;-2.00;99.90;;;;;;5056972;28;20020;-85
2021/04/08 01:45:58;;;;;;;30.75;16.90;;;-2.00;99.90;;;;;;5074902;28;20375;-84
2021/04/08 01:48:25;;;;;;;29.08;14.18;;;-2.00;99.90;;;;;;5056914;28;20021;-83
2021/04/08 01:50:56;;;;;;;37.55;15.43;;;-2.10;99.90;;;;;;5056744;28;20174;-85
2021/04/08 01:53:22;;;;;;;33.35;13.75;;;-2.00;99.90;;;;;;5056822;28;20040;-85
2021/04/08 01:55:52;;;;;;;26.10;13.68;;;-2.10;99.90;;;;;;5056610;28;20013;-85
2021/04/08 01:58:20;;;;;;;31.40;13.98;;;-2.10;99.90;;;;;;5056670;28;20505;-85
2021/04/08 02:00:47;;;;;;;28.08;14.38;;;-2.20;99.90;;;;;;5074515;28;20020;-85
2021/04/08 02:03:15;;;;;;;29.02;14.65;;;-2.20;99.90;;;;;;5074627;28;20029;-84
2021/04/08 02:05:42;;;;;;;28.08;14.52;;;-2.20;99.90;;;;;;5056352;28;20032;-84
2021/04/08 02:08:08;;;;;;;32.63;14.75;;;-2.20;99.90;;;;;;5056406;28;20017;-84
2021/04/08 02:10:36;;;;;;;34.53;16.63;;;-2.20;99.90;;;;;;5055348;28;20562;-84
2021/04/08 02:13:04;;;;;;;35.83;17.40;;;-2.20;99.90;;;;;;5056406;28;20390;-84
2021/04/08 02:15:31;;;;;;;33.92;16.02;;;-2.20;99.90;;;;;;5056265;28;20078;-86
2021/04/08 02:17:59;;;;;;;37.63;16.77;;;-2.20;99.90;;;;;;5074559;28;20131;-85
2021/04/08 02:20:31;;;;;;;36.25;16.33;;;-2.30;99.90;;;;;;5074176;28;20838;-84
2021/04/08 02:23:00;;;;;;;32.60;15.43;;;-2.30;99.90;;;;;;5056580;28;20116;-84
2021/04/08 02:25:30;;;;;;;36.15;17.75;;;-2.30;99.90;;;;;;5056123;28;20127;-84
2021/04/08 02:27:58;;;;;;;33.13;16.67;;;-2.30;99.90;;;;;;5073970;28;20048;-83
2021/04/08 02:30:25;;;;;;;32.47;17.15;;;-2.30;99.90;;;;;;5056077;28;20016;-84
2021/04/08 02:32:53;;;;;;;33.22;17.65;;;-2.30;99.90;;;;;;5072900;28;20151;-84
2021/04/08 02:35:19;;;;;;;34.72;15.95;;;-2.20;99.90;;;;;;5055916;28;20024;-84
2021/04/08 02:37:46;;;;;;;35.05;17.40;;;-2.20;99.90;;;;;;5073773;28;20029;-85
2021/04/08 02:40:15;;;;;;;34.80;17.05;;;-2.20;99.90;;;;;;5073683;28;20035;-84
2021/04/08 02:42:40;;;;;;;31.80;17.00;;;-2.20;99.90;;;;;;5073677;28;20518;-85
2021/04/08 02:45:08;;;;;;;30.67;14.95;;;-2.20;99.90;;;;;;5055657;28;20132;-84
2021/04/08 02:47:34;;;;;;;30.02;16.10;;;-2.10;99.90;;;;;;5054791;28;20025;-84
2021/04/08 02:50:01;;;;;;;29.85;15.73;;;-2.10;99.90;;;;;;5073631;28;20027;-84
2021/04/08 02:52:34;;;;;;;29.10;15.48;;;-2.10;99.90;;;;;;5055664;28;20107;-84
2021/04/08 02:55:12;;;;;;;30.33;15.55;;;-2.10;99.90;;;;;;5055674;28;20021;-89
2021/04/08 02:57:52;;;;;;;30.27;14.70;;;-2.00;99.90;;;;;;5073371;28;20078;-84
2021/04/08 03:00:18;;;;;;;35.40;15.25;;;-2.00;99.90;;;;;;5073254;28;20032;-84
2021/04/08 03:02:46;;;;;;;36.70;17.38;;;-2.00;99.90;;;;;;5055361;28;20021;-84
2021/04/08 03:05:13;;;;;;;32.25;16.63;;;-1.90;99.90;;;;;;5073305;28;20486;-85
2021/04/08 03:07:51;;;;;;;22.35;13.23;;;-1.90;99.90;;;;;;5073308;28;20118;-85
2021/04/08 03:10:17;;;;;;;20.23;12.38;;;-1.80;99.90;;;;;;5035589;28;20033;-85
2021/04/08 03:12:47;;;;;;;23.40;11.93;;;-1.80;99.90;;;;;;5035300;28;20021;-85
2021/04/08 03:15:24;;;;;;;22.80;12.18;;;-1.70;99.90;;;;;;5035235;28;20475;-85
2021/04/08 03:17:52;;;;;;;19.30;11.05;;;-1.70;99.90;;;;;;5035321;28;20020;-84
2021/04/08 03:20:19;;;;;;;18.60;11.55;;;-1.70;99.90;;;;;;5052958;28;20054;-83
2021/04/08 03:22:46;;;;;;;20.10;11.38;;;-1.60;99.90;;;;;;5034498;28;20032;-83
2021/04/08 03:25:13;;;;;;;20.27;10.27;;;-1.60;99.90;;;;;;5035041;28;20041;-83
2021/04/08 03:27:40;;;;;;;18.33;9.63;;;-1.50;99.90;;;;;;5034977;28;20029;-83
2021/04/08 03:30:15;;;;;;;14.30;8.88;;;-1.50;99.90;;;;;;5035031;28;20025;-84
2021/04/08 03:32:42;;;;;;;19.67;10.23;;;-1.50;99.90;;;;;;5035119;28;20378;-84
2021/04/08 03:35:11;;;;;;;18.40;9.73;;;-1.40;99.90;;;;;;5035006;28;20032;-84
2021/04/08 03:37:37;;;;;;;21.58;10.68;;;-1.40;99.90;;;;;;5052759;28;20542;-83
2021/04/08 03:40:04;;;;;;;21.88;10.07;;;-1.40;99.90;;;;;;5034919;28;20462;-84
2021/04/08 03:42:31;;;;;;;18.88;10.48;;;-1.40;99.90;;;;;;5034972;28;20017;-84
2021/04/08 03:44:56;;;;;;;20.40;11.20;;;-1.30;99.90;;;;;;5034764;28;20124;-83
2021/04/08 03:47:23;;;;;;;19.70;10.93;;;-1.30;99.90;;;;;;5034866;28;20021;-84
2021/04/08 03:49:51;;;;;;;24.58;11.35;;;-1.30;99.90;;;;;;5052640;28;20025;-84
2021/04/08 03:52:18;;;;;;;22.55;11.27;;;-1.30;99.90;;;;;;5034646;28;20107;-84
2021/04/08 03:54:47;;;;;;;19.33;10.73;;;-1.30;99.90;;;;;;5034697;28;20025;-84
2021/04/08 03:57:17;;;;;;;20.90;11.57;;;-1.30;99.90;;;;;;5035030;28;20017;-85
2021/04/08 03:59:45;;;;;;;22.42;11.80;;;-1.30;99.90;;;;;;5055467;28;20025;-85
2021/04/08 04:02:14;;;;;;;23.13;11.95;;;-1.30;99.90;;;;;;5038966;28;20414;-85
2021/04/08 04:04:42;;;;;;;25.63;13.82;;;-1.30;99.90;;;;;;5038580;28;20037;-86
2021/04/08 04:07:08;;;;;;;27.80;13.73;;;-1.30;99.90;;;;;;5038821;28;20044;-86
2021/04/08 04:09:34;;;;;;;25.77;13.45;;;-1.30;99.90;;;;;;5063039;28;20048;-85
2021/04/08 04:12:02;;;;;;;33.60;12.70;;;-1.30;99.90;;;;;;5038608;28;20155;-84
2021/04/08 04:14:28;;;;;;;25.95;12.60;;;-1.40;99.90;;;;;;5043389;28;20119;-84
2021/04/08 04:16:55;;;;;;;27.40;13.82;;;-1.40;99.90;;;;;;5038480;28;20364;-83
2021/04/08 04:19:24;;;;;;;32.83;15.32;;;-1.30;99.90;;;;;;5040335;28;20090;-84
2021/04/08 04:21:50;;;;;;;29.00;15.98;;;-1.30;99.90;;;;;;5058988;28;20020;-84
2021/04/08 04:24:16;;;;;;;28.95;16.23;;;-1.30;99.90;;;;;;5040459;28;20028;-84
2021/04/08 04:26:42;;;;;;;39.95;18.98;;;-1.30;99.90;;;;;;5043187;28;20017;-84
2021/04/08 04:29:08;;;;;;;110.55;48.00;;;-1.30;99.90;;;;;;5038050;28;20024;-84
2021/04/08 04:31:34;;;;;;;105.22;47.75;;;-1.30;99.90;;;;;;5038563;28;20059;-84
2021/04/08 04:34:04;;;;;;;96.05;46.35;;;-1.30;99.90;;;;;;5038315;28;20044;-84
2021/04/08 04:36:31;;;;;;;124.70;53.92;;;-1.20;99.90;;;;;;5030332;28;20025;-84
2021/04/08 04:38:56;;;;;;;153.13;61.03;;;-1.20;99.90;;;;;;5038246;28;20447;-84
2021/04/08 04:41:22;;;;;;;197.80;78.57;;;-1.20;99.90;;;;;;5038272;28;20064;-83
2021/04/08 04:43:47;;;;;;;160.30;61.42;;;-1.20;99.90;;;;;;5038358;28;20047;-83
2021/04/08 04:46:13;;;;;;;191.00;75.53;;;-1.20;99.90;;;;;;5037873;28;20425;-85
2021/04/08 04:48:39;;;;;;;217.45;83.03;;;-1.20;99.90;;;;;;5038345;28;20112;-85
2021/04/08 04:51:05;;;;;;;258.20;95.85;;;-1.10;99.90;;;;;;5038452;28;20597;-85
2021/04/08 04:53:31;;;;;;;266.10;93.97;;;-1.10;99.90;;;;;;5038294;28;20040;-84
2021/04/08 04:55:57;;;;;;;250.65;88.32;;;-1.10;99.90;;;;;;5037861;28;20493;-84
2021/04/08 04:58:23;;;;;;;85.28;40.97;;;-1.00;99.90;;;;;;5037611;28;20120;-84
2021/04/08 05:00:48;;;;;;;101.38;49.75;;;-1.00;99.90;;;;;;5055186;28;20478;-84
2021/04/08 05:03:14;;;;;;;117.40;61.88;;;-1.00;99.90;;;;;;5037809;28;20029;-84
2021/04/08 05:05:40;;;;;;;218.30;107.78;;;-1.00;99.90;;;;;;5037593;28;20036;-84
2021/04/08 05:08:05;;;;;;;213.40;99.80;;;-1.00;99.90;;;;;;5039901;28;20028;-83
2021/04/08 05:10:31;;;;;;;140.68;69.45;;;-0.90;99.90;;;;;;5074653;28;20445;-84
2021/04/08 05:12:57;;;;;;;229.57;97.82;;;-0.90;99.90;;;;;;5057576;28;20013;-84
2021/04/08 05:15:22;;;;;;;160.63;74.40;;;-0.90;99.90;;;;;;5075360;28;20106;-84
2021/04/08 05:17:48;;;;;;;140.55;61.90;;;-0.80;99.90;;;;;;5075293;28;20025;-85
2021/04/08 05:20:14;;;;;;;325.50;129.10;;;-0.80;99.90;;;;;;5057459;28;20063;-85
2021/04/08 05:22:39;;;;;;;218.80;78.28;;;-0.70;99.90;;;;;;5057328;28;20087;-85
2021/04/08 05:25:06;;;;;;;146.65;51.15;;;-0.70;99.90;;;;;;5057269;28;20383;-84
2021/04/08 05:27:31;;;;;;;62.53;24.73;;;-0.60;99.90;;;;;;5075171;28;20495;-84
2021/04/08 05:29:57;;;;;;;58.55;25.80;;;-0.60;99.90;;;;;;5057209;28;20032;-83
2021/04/08 05:32:23;;;;;;;87.93;37.83;;;-0.50;99.90;;;;;;5056962;28;20029;-84
2021/04/08 05:34:51;;;;;;;71.32;26.42;;;-0.50;99.90;;;;;;5057332;28;20488;-83
2021/04/08 05:37:17;;;;;;;51.00;22.67;;;-0.50;99.90;;;;;;5057159;28;20523;-83
2021/04/08 05:39:42;;;;;;;51.42;26.45;;;-0.50;99.90;;;;;;5056622;28;20115;-85
2021/04/08 05:42:09;;;;;;;68.70;28.98;;;-0.50;99.90;;;;;;5075028;28;20454;-85
2021/04/08 05:44:35;;;;;;;58.03;22.45;;;-0.50;99.90;;;;;;5056485;28;20045;-85
2021/04/08 05:47:01;;;;;;;41.40;22.25;;;-0.50;99.90;;;;;;5056895;28;20580;-84
2021/04/08 05:49:26;;;;;;;68.35;35.33;;;-0.50;99.90;;;;;;5051516;28;20027;-85
2021/04/08 05:51:52;;;;;;;73.03;34.13;;;-0.50;99.90;;;;;;5035286;28;20029;-86
2021/04/08 05:54:18;;;;;;;115.07;46.97;;;-0.50;99.90;;;;;;5053187;28;20536;-85
2021/04/08 05:56:43;;;;;;;125.05;56.80;;;-0.50;99.90;;;;;;5035414;28;20025;-85
2021/04/08 05:59:09;;;;;;;106.68;48.40;;;-0.40;99.90;;;;;;5035004;28;20040;-86
2021/04/08 06:01:34;;;;;;;74.82;33.78;;;-0.40;99.90;;;;;;5036121;28;20032;-85
2021/04/08 06:04:00;;;;;;;89.20;39.53;;;-0.30;99.90;;;;;;5034087;28;20383;-86
2021/04/08 06:06:26;;;;;;;66.10;33.78;;;-0.20;99.90;;;;;;5036349;28;20036;-87
2021/04/08 06:08:51;;;;;;;49.63;25.77;;;-0.20;99.90;;;;;;5035939;28;20025;-86
2021/04/08 06:11:17;;;;;;;46.47;23.65;;;-0.10;99.90;;;;;;5069830;28;20032;-86
2021/04/08 06:13:43;;;;;;;31.92;17.65;;;-0.10;99.90;;;;;;5055998;28;20123;-86
2021/04/08 06:16:09;;;;;;;47.47;23.10;;;-0.10;99.90;;;;;;5055808;28;20023;-86
2021/04/08 06:18:34;;;;;;;35.83;18.83;;;0.00;99.90;;;;;;5055233;28;20466;-85
2021/04/08 06:21:00;;;;;;;38.58;19.10;;;0.00;99.90;;;;;;5055203;28;20379;-83
2021/04/08 06:23:26;;;;;;;34.28;17.08;;;0.00;99.90;;;;;;5074097;28;20099;-85
2021/04/08 06:25:52;;;;;;;38.97;19.63;;;0.00;99.90;;;;;;5056268;28;20032;-85
2021/04/08 06:28:17;;;;;;;35.05;20.05;;;0.10;99.90;;;;;;5050313;28;20028;-85
2021/04/08 06:30:45;;;;;;;36.22;18.73;;;0.10;99.90;;;;;;5050261;28;20016;-86
2021/04/08 06:33:11;;;;;;;54.90;24.23;;;0.20;99.90;;;;;;5054736;28;20020;-88
2021/04/08 06:35:37;;;;;;;41.30;21.67;;;0.20;99.90;;;;;;5039185;28;20448;-87
2021/04/08 06:38:03;;;;;;;38.17;20.85;;;0.30;99.90;;;;;;5053401;28;20114;-85
2021/04/08 06:40:29;;;;;;;32.20;17.08;;;0.30;99.90;;;;;;5034121;28;20028;-84
2021/04/08 06:42:55;;;;;;;41.38;20.95;;;0.30;99.90;;;;;;5055102;28;20070;-85
2021/04/08 06:45:26;;;;;;;37.63;17.63;;;0.20;99.90;;;;;;5035052;28;20040;-84
2021/04/08 06:48:05;;;;;;;44.03;20.17;;;0.20;99.90;;;;;;5035341;28;20064;-84
2021/04/08 06:50:36;;;;;;;37.15;18.10;;;0.20;99.90;;;;;;5037623;28;20033;-85
2021/04/08 06:53:04;;;;;;;29.50;16.52;;;0.30;99.90;;;;;;5034053;28;20032;-84
2021/04/08 06:55:31;;;;;;;26.88;15.13;;;0.30;99.90;;;;;;5049763;28;20028;-84
2021/04/08 06:57:58;;;;;;;34.53;16.38;;;0.30;99.90;;;;;;5030178;28;20013;-84
2021/04/08 07:00:24;;;;;;;47.22;19.38;;;0.40;99.90;;;;;;5051795;28;20497;-84
2021/04/08 07:02:50;;;;;;;20.08;12.82;;;0.50;99.90;;;;;;5034446;28;20096;-86
2021/04/08 07:05:16;;;;;;;23.67;12.05;;;0.40;99.90;;;;;;5034471;28;20040;-86
2021/04/08 07:07:42;;;;;;;37.83;16.05;;;0.40;99.90;;;;;;5034753;28;20024;-85
2021/04/08 07:10:14;;;;;;;35.00;15.07;;;0.40;99.90;;;;;;5036669;28;20381;-85
2021/04/08 07:12:40;;;;;;;31.97;13.27;;;0.30;99.90;;;;;;5051643;28;20107;-85
2021/04/08 07:15:07;;;;;;;41.80;16.98;;;0.30;99.90;;;;;;5056779;28;20320;-85
2021/04/08 07:17:33;;;;;;;77.60;32.30;;;0.40;99.90;;;;;;5067498;28;20033;-85
2021/04/08 07:19:59;;;;;;;80.30;37.05;;;0.50;99.90;;;;;;5075174;28;20055;-88
2021/04/08 07:22:25;;;;;;;87.88;37.50;;;0.60;99.90;;;;;;5053637;28;20020;-87
2021/04/08 07:24:52;;;;;;;44.22;18.40;;;0.60;99.90;;;;;;5071492;28;20028;-88
2021/04/08 07:27:21;;;;;;;22.95;10.90;;;0.80;99.90;;;;;;5051928;28;20050;-88
2021/04/08 07:29:57;;;;;;;65.80;20.67;;;0.80;99.90;;;;;;5053346;28;20024;-87
2021/04/08 07:32:31;;;;;;;30.90;11.95;;;1.00;99.90;;;;;;5055943;28;20141;-87
2021/04/08 07:34:58;;;;;;;14.57;6.13;;;1.00;99.90;;;;;;5063397;28;20417;-88
2021/04/08 07:37:26;;;;;;;32.97;9.55;;;1.00;99.90;;;;;;5080245;28;20069;-88
2021/04/08 07:39:53;;;;;;;27.60;12.57;;;1.10;99.90;;;;;;5080706;28;20375;-88
2021/04/08 07:42:24;;;;;;;33.03;12.82;;;1.10;99.90;;;;;;5076707;28;20074;-88
2021/04/08 07:44:50;;;;;;;35.88;13.70;;;1.20;99.90;;;;;;5060663;28;20044;-88
2021/04/08 07:47:17;;;;;;;45.05;17.20;;;1.20;99.90;;;;;;5054841;28;20024;-88
2021/04/08 07:49:44;;;;;;;37.65;14.98;;;1.10;99.90;;;;;;5054902;28;20385;-87
2021/04/08 07:52:20;;;;;;;25.75;14.18;;;1.20;99.90;;;;;;5072740;28;20044;-89
2021/04/08 07:55:02;;;;;;;28.73;13.93;;;1.20;99.90;;;;;;5054973;28;20013;-89
2021/04/08 07:57:29;;;;;;;12.88;7.18;;;1.30;99.90;;;;;;5046729;28;20028;-89
2021/04/08 07:59:55;;;;;;;26.40;11.35;;;1.30;99.90;;;;;;5072544;28;20066;-89
2021/04/08 08:02:26;;;;;;;16.38;7.63;;;1.60;99.90;;;;;;5071662;28;20373;-87
2021/04/08 08:05:22;;;;;;;34.85;14.85;;;1.70;99.90;;;;;;5054426;28;20051;-87
2021/04/08 08:07:48;;;;;;;30.52;13.13;;;2.10;99.90;;;;;;5067337;28;20028;-89
2021/04/08 08:10:20;;;;;;;42.30;21.25;;;2.40;99.90;;;;;;5054719;28;20052;-85
2021/04/08 08:12:46;;;;;;;56.72;28.15;;;2.30;99.90;;;;;;5064208;28;20032;-88
2021/04/08 08:15:18;;;;;;;25.00;16.92;;;2.40;99.90;;;;;;5075729;28;20523;-87
2021/04/08 08:17:43;;;;;;;20.33;11.35;;;2.20;99.90;;;;;;5053179;28;20028;-86
2021/04/08 08:20:10;;;;;;;23.67;11.00;;;2.20;99.90;;;;;;5056095;28;20036;-87
2021/04/08 08:22:38;;;;;;;17.17;7.55;;;2.10;99.90;;;;;;5071028;28;20021;-86
2021/04/08 08:25:05;;;;;;;23.15;11.07;;;2.00;99.90;;;;;;5080284;28;20028;-87
2021/04/08 08:27:48;;;;;;;24.40;10.30;;;2.00;99.90;;;;;;5063826;28;20482;-88
2021/04/08 08:30:22;;;;;;;17.70;8.15;;;1.90;99.90;;;;;;5074053;28;20016;-88
2021/04/08 08:33:10;;;;;;;20.15;9.20;;;1.90;99.90;;;;;;5062513;28;20451;-89
2021/04/08 08:35:37;;;;;;;23.17;11.43;;;1.90;99.90;;;;;;5073872;28;20016;-88
2021/04/08 08:38:20;;;;;;;19.55;9.45;;;2.10;99.90;;;;;;5054387;28;20035;-88
2021/04/08 08:40:47;;;;;;;20.15;9.43;;;2.30;99.90;;;;;;5080399;28;20033;-88
2021/04/08 08:43:14;;;;;;;10.80;7.15;;;2.80;99.90;;;;;;5075418;28;20016;-89
2021/04/08 08:45:41;;;;;;;13.65;7.70;;;3.10;92.50;;;;;;5077594;28;20546;-89
2021/04/08 08:48:25;;;;;;;12.20;7.47;;;3.30;90.00;;;;;;5061002;28;20023;-89
2021/04/08 08:50:51;;;;;;;23.35;9.68;;;3.40;85.80;;;;;;5075947;28;20059;-88
2021/04/08 08:53:18;;;;;;;14.10;8.75;;;3.60;88.30;;;;;;5079412;28;20560;-89
2021/04/08 08:55:43;;;;;;;14.60;7.05;;;3.60;84.40;;;;;;5061863;28;20107;-89
2021/04/08 08:58:09;;;;;;;20.02;9.20;;;3.40;80.50;;;;;;5061918;28;20108;-89
2021/04/08 09:00:35;;;;;;;10.63;6.88;;;3.30;84.90;;;;;;5076400;28;20509;-89
2021/04/08 09:03:03;;;;;;;9.82;5.72;;;3.20;85.90;;;;;;5072210;28;20026;-87
2021/04/08 09:05:31;;;;;;;11.38;6.90;;;3.20;82.90;;;;;;5054457;28;20036;-88
2021/04/08 09:08:11;;;;;;;15.98;8.60;;;3.10;83.80;;;;;;5071980;28;20044;-88
2021/04/08 09:10:40;;;;;;;14.52;7.93;;;3.10;81.50;;;;;;5053796;28;20032;-89
2021/04/08 09:13:06;;;;;;;12.60;7.88;;;3.20;82.50;;;;;;5054254;28;20036;-86
2021/04/08 09:15:34;;;;;;;13.10;5.43;;;3.30;82.10;;;;;;5054114;28;20028;-85
2021/04/08 09:18:04;;;;;;;11.10;6.93;;;3.30;77.90;;;;;;5071841;28;20437;-87
2021/04/08 09:20:32;;;;;;;11.57;6.13;;;3.60;80.70;;;;;;5060242;28;20469;-86
2021/04/08 09:23:03;;;;;;;43.97;20.13;;;3.40;78.60;;;;;;5060612;28;20028;-86
2021/04/08 09:25:37;;;;;;;86.80;35.88;;;3.60;79.60;;;;;;5044931;28;20579;-86
2021/04/08 09:28:04;;;;;;;10.73;5.40;;;3.60;73.60;;;;;;5071981;28;20025;-86
2021/04/08 09:33:48;;;;;;;49.70;20.10;;;3.60;73.20;;;;;;5070092;28;20036;-86
2021/04/08 09:36:20;;;;;;;23.10;10.50;;;4.00;75.10;;;;;;5098303;28;20028;-87
2021/04/08 09:38:49;;;;;;;24.77;11.30;;;3.90;66.80;;;;;;5063913;28;20356;-86
2021/04/08 09:41:15;;;;;;;15.02;6.55;;;4.00;66.10;;;;;;5055262;28;20493;-87
2021/04/08 09:43:40;;;;;;;19.67;8.18;;;3.90;66.00;;;;;;5062993;28;20052;-85
2021/04/08 09:46:11;;;;;;;34.78;14.55;;;3.90;65.20;;;;;;5073304;28;20021;-87
2021/04/08 09:48:52;;;;;;;21.92;9.57;;;3.80;64.30;;;;;;5071758;28;20100;-87
2021/04/08 09:51:29;;;;;;;16.23;7.63;;;3.50;61.60;;;;;;5057243;28;20105;-87
2021/04/08 09:53:55;;;;;;;17.10;6.55;;;3.50;63.00;;;;;;5070914;28;20020;-87
2021/04/08 09:56:44;;;;;;;42.58;20.13;;;3.40;64.10;;;;;;5076724;28;20389;-86
2021/04/08 09:59:12;;;;;;;17.23;9.88;;;3.60;67.30;;;;;;5076786;28;20034;-87
2021/04/08 10:01:38;;;;;;;12.40;5.65;;;3.90;65.50;;;;;;5076626;28;20474;-86
2021/04/08 10:04:17;;;;;;;38.67;17.38;;;4.10;66.10;;;;;;5094766;28;20555;-86
2021/04/08 10:06:44;;;;;;;5.88;3.17;;;4.20;66.70;;;;;;5076862;28;20016;-86
2021/04/08 10:09:17;;;;;;;22.38;11.90;;;3.90;67.40;;;;;;5094973;28;20106;-88
2021/04/08 10:11:43;;;;;;;11.43;5.40;;;3.90;69.40;;;;;;5070193;28;20474;-86
2021/04/08 10:14:25;;;;;;;14.15;7.47;;;3.80;68.30;;;;;;5074224;28;20024;-87
2021/04/08 10:17:05;;;;;;;28.88;14.38;;;3.60;67.10;;;;;;5056182;28;20487;-86
2021/04/08 10:19:39;;;;;;;22.02;10.90;;;3.50;66.40;;;;;;5055844;28;20469;-86
2021/04/08 10:22:06;;;;;;;13.27;8.38;;;3.90;69.30;;;;;;5056014;28;20020;-86
2021/04/08 10:24:43;;;;;;;26.38;12.68;;;4.30;70.20;;;;;;5054199;28;20032;-85
2021/04/08 10:27:22;;;;;;;9.27;5.85;;;4.40;71.20;;;;;;5055894;28;20441;-88
2021/04/08 10:29:48;;;;;;;8.32;3.28;;;4.20;66.60;;;;;;5072097;28;20052;-88
2021/04/08 10:32:35;;;;;;;5.75;3.42;;;4.00;69.40;;;;;;5072239;28;20052;-88
2021/04/08 10:35:01;;;;;;;11.40;4.28;;;3.50;67.90;;;;;;5057916;28;20025;-85
2021/04/08 10:37:27;;;;;;;9.57;5.28;;;3.50;70.00;;;;;;5055686;28;20150;-85
2021/04/08 10:39:53;;;;;;;36.38;17.15;;;3.40;71.80;;;;;;5074196;28;20032;-84
2021/04/08 10:42:20;;;;;;;39.92;18.73;;;3.50;76.50;;;;;;5075224;28;20058;-86
2021/04/08 10:44:53;;;;;;;13.35;7.55;;;3.80;74.40;;;;;;5075162;28;20123;-89
2021/04/08 10:47:20;;;;;;;15.20;6.93;;;3.80;73.70;;;;;;5093207;28;20031;-87
2021/04/08 10:49:55;;;;;;;36.45;16.10;;;3.80;70.80;;;;;;5092389;28;20024;-87
2021/04/08 10:52:23;;;;;;;37.47;14.88;;;3.90;72.60;;;;;;5075841;28;20016;-87
2021/04/08 10:54:54;;;;;;;22.42;12.02;;;4.00;69.80;;;;;;5075337;28;20028;-87
2021/04/08 10:57:21;;;;;;;12.40;7.13;;;4.10;71.10;;;;;;5064675;28;20081;-87
2021/04/08 10:59:48;;;;;;;14.98;7.05;;;4.00;65.60;;;;;;5071484;28;20020;-88
2021/04/08 11:02:25;;;;;;;9.65;5.35;;;4.00;64.40;;;;;;5063741;28;20016;-87
2021/04/08 11:04:55;;;;;;;11.65;6.35;;;4.40;64.20;;;;;;5072503;28;20103;-88
2021/04/08 11:07:22;;;;;;;128.85;37.45;;;4.60;66.60;;;;;;5072305;28;20492;-87
2021/04/08 11:09:48;;;;;;;30.83;14.60;;;4.40;61.70;;;;;;5090052;28;20032;-88
2021/04/08 11:12:23;;;;;;;80.88;27.48;;;4.20;60.90;;;;;;5092453;28;20070;-87
2021/04/08 11:14:56;;;;;;;63.60;18.73;;;4.40;60.60;;;;;;5093150;28;20020;-88
2021/04/08 11:17:23;;;;;;;27.65;10.48;;;4.80;62.00;;;;;;5084078;28;20024;-87
2021/04/08 11:19:52;;;;;;;61.13;20.58;;;5.00;63.00;;;;;;5055440;28;20451;-85
2021/04/08 11:22:20;;;;;;;19.08;7.55;;;5.40;63.40;;;;;;5066171;28;20456;-89
2021/04/08 11:24:48;;;;;;;52.22;17.25;;;5.00;57.40;;;;;;5052738;28;20493;-87
2021/04/08 11:27:23;;;;;;;62.28;18.65;;;5.00;59.50;;;;;;5059987;28;20016;-89
2021/04/08 11:29:51;;;;;;;51.47;17.20;;;4.70;59.80;;;;;;5092557;28;20032;-89
2021/04/08 11:32:17;;;;;;;65.80;23.10;;;4.30;60.90;;;;;;5067218;28;20014;-89
2021/04/08 11:34:51;;;;;;;82.60;26.27;;;4.10;63.70;;;;;;5095013;28;20095;-89
2021/04/08 11:37:30;;;;;;;79.38;25.92;;;4.00;65.40;;;;;;5091629;28;20052;-88
2021/04/08 11:39:59;;;;;;;17.30;8.23;;;3.80;71.40;;;;;;5087641;28;20020;-88
2021/04/08 11:42:25;;;;;;;12.52;6.78;;;3.70;70.80;;;;;;5090962;28;20024;-88
2021/04/08 11:44:52;;;;;;;26.27;9.48;;;3.70;69.00;;;;;;5060502;28;20059;-89
2021/04/08 11:47:21;;;;;;;12.70;6.72;;;3.80;71.10;;;;;;5081765;28;20509;-87
2021/04/08 11:49:54;;;;;;;16.33;7.32;;;3.90;72.10;;;;;;5086034;28;20490;-89
2021/04/08 11:52:22;;;;;;;15.50;7.45;;;3.90;71.80;;;;;;5065979;28;20456;-88
2021/04/08 11:55:02;;;;;;;161.35;44.38;;;3.80;70.80;;;;;;5052028;28;20467;-88
2021/04/08 11:57:28;;;;;;;42.50;15.30;;;3.80;74.20;;;;;;5071109;28;20079;-87
2021/04/08 12:00:12;;;;;;;10.95;6.55;;;3.50;81.10;;;;;;5054928;28;20031;-87
2021/04/08 12:02:40;;;;;;;7.53;4.22;;;3.30;85.20;;;;;;5092192;28;20032;-87
2021/04/08 12:05:11;;;;;;;6.03;2.78;;;3.00;87.80;;;;;;5074849;28;20055;-88
2021/04/08 12:07:44;;;;;;;4.50;3.75;;;2.80;89.40;;;;;;5092683;28;20031;-87
2021/04/08 12:10:32;;;;;;;6.78;4.22;;;2.60;93.10;;;;;;5074997;28;20481;-87
2021/04/08 12:12:59;;;;;;;10.63;3.83;;;2.50;95.60;;;;;;5074198;28;20476;-83
2021/04/08 12:15:39;;;;;;;9.77;4.38;;;2.20;93.50;;;;;;5074850;28;20020;-90
2021/04/08 12:18:23;;;;;;;6.30;4.65;;;2.10;98.50;;;;;;5092680;28;20024;-86
2021/04/08 12:20:49;;;;;;;13.18;5.57;;;2.20;99.90;;;;;;5095384;28;20020;-88
2021/04/08 12:23:35;;;;;;;13.88;6.93;;;2.30;99.90;;;;;;5096485;28;20388;-86
2021/04/08 12:26:01;;;;;;;7.88;4.70;;;2.60;99.90;;;;;;5085731;28;20033;-87
2021/04/08 12:28:27;;;;;;;6.70;5.13;;;2.80;99.90;;;;;;5057475;28;20047;-87
2021/04/08 12:30:59;;;;;;;7.95;4.28;;;3.10;99.90;;;;;;5075180;28;20024;-89
2021/04/08 12:33:27;;;;;;;10.93;4.82;;;3.50;99.90;;;;;;5076248;28;20016;-87
2021/04/08 12:35:53;;;;;;;12.27;5.88;;;3.80;96.80;;;;;;5074808;28;20098;-89
2021/04/08 12:38:19;;;;;;;11.77;5.68;;;4.20;93.40;;;;;;5056611;28;20024;-89
2021/04/08 12:40:47;;;;;;;13.05;5.93;;;4.60;90.50;;;;;;5056899;28;20020;-89
2021/04/08 12:43:12;;;;;;;10.02;4.32;;;4.80;87.50;;;;;;5055234;28;20024;-88
2021/04/08 12:45:38;;;;;;;8.00;4.38;;;4.80;80.20;;;;;;5082718;28;20044;-87